sensor_id;sensor_type;location;lat;lon;timestamp;P1;durP1;ratioP1;P2;durP2;ratioP2
75073;SDS011;63652;51.526;5.080;2023-04-03T00:02:11;4.60;;;3.00;;
75073;SDS011;63652;51.526;5.080;2023-04-03T00:04:36;5.28;;;3.55;;
75073;SDS011;63652;51.526;5.080;2023-04-03T00:07:01;4.85;;;3.13;;
75073;SDS011;63652;51.526;5.080;2023-04-03T00:09:27;5.40;;;2.80;;
75073;SDS011;63652;51.526;5.080;2023-04-03T00:11:52;6.80;;;3.10;;
75073;SDS011;63652;51.526;5.080;2023-04-03T00:14:18;5.90;;;3.33;;
75073;SDS011;63652;51.526;5.080;2023-04-03T00:16:43;4.20;;;2.72;;
75073;SDS011;63652;51.526;5.080;2023-04-03T00:19:08;4.75;;;2.90;;
75073;SDS011;63652;51.526;5.080;2023-04-03T00:21:36;7.90;;;3.13;;
75073;SDS011;63652;51.526;5.080;2023-04-03T00:24:02;6.93;;;3.70;;
75073;SDS011;63652;51.526;5.080;2023-04-03T00:26:27;6.32;;;3.78;;
75073;SDS011;63652;51.526;5.080;2023-04-03T00:28:53;6.25;;;3.30;;
75073;SDS011;63652;51.526;5.080;2023-04-03T00:31:18;5.97;;;3.65;;
75073;SDS011;63652;51.526;5.080;2023-04-03T00:33:43;6.30;;;3.38;;
75073;SDS011;63652;51.526;5.080;2023-04-03T00:36:09;4.95;;;2.90;;
75073;SDS011;63652;51.526;5.080;2023-04-03T00:38:35;5.97;;;3.17;;
75073;SDS011;63652;51.526;5.080;2023-04-03T00:41:01;4.05;;;2.63;;
75073;SDS011;63652;51.526;5.080;2023-04-03T00:43:27;8.23;;;3.88;;
75073;SDS011;63652;51.526;5.080;2023-04-03T00:45:53;5.47;;;3.30;;
75073;SDS011;63652;51.526;5.080;2023-04-03T00:48:30;6.05;;;3.55;;
75073;SDS011;63652;51.526;5.080;2023-04-03T00:51:02;6.82;;;3.38;;
75073;SDS011;63652;51.526;5.080;2023-04-03T00:53:39;7.10;;;3.90;;
75073;SDS011;63652;51.526;5.080;2023-04-03T00:56:08;6.15;;;3.63;;
75073;SDS011;63652;51.526;5.080;2023-04-03T00:58:46;7.40;;;4.10;;
75073;SDS011;63652;51.526;5.080;2023-04-03T01:01:18;6.55;;;3.58;;
75073;SDS011;63652;51.526;5.080;2023-04-03T01:03:46;5.75;;;3.58;;
75073;SDS011;63652;51.526;5.080;2023-04-03T01:06:12;7.03;;;3.72;;
75073;SDS011;63652;51.526;5.080;2023-04-03T01:08:38;6.82;;;3.90;;
75073;SDS011;63652;51.526;5.080;2023-04-03T01:11:03;8.07;;;4.28;;
75073;SDS011;63652;51.526;5.080;2023-04-03T01:13:30;6.93;;;3.92;;
75073;SDS011;63652;51.526;5.080;2023-04-03T01:15:57;6.80;;;4.05;;
75073;SDS011;63652;51.526;5.080;2023-04-03T01:18:25;6.50;;;4.00;;
75073;SDS011;63652;51.526;5.080;2023-04-03T01:25:49;8.75;;;3.65;;
75073;SDS011;63652;51.526;5.080;2023-04-03T01:28:22;8.88;;;3.60;;
75073;SDS011;63652;51.526;5.080;2023-04-03T01:33:39;8.80;;;3.78;;
75073;SDS011;63652;51.526;5.080;2023-04-03T01:36:05;7.03;;;3.75;;
75073;SDS011;63652;51.526;5.080;2023-04-03T01:38:31;6.93;;;3.67;;
75073;SDS011;63652;51.526;5.080;2023-04-03T01:40:57;6.57;;;3.90;;
75073;SDS011;63652;51.526;5.080;2023-04-03T01:43:22;5.90;;;3.60;;
75073;SDS011;63652;51.526;5.080;2023-04-03T01:45:47;7.45;;;3.92;;
75073;SDS011;63652;51.526;5.080;2023-04-03T01:48:15;7.18;;;3.75;;
75073;SDS011;63652;51.526;5.080;2023-04-03T01:50:40;7.63;;;3.47;;
75073;SDS011;63652;51.526;5.080;2023-04-03T01:53:06;7.07;;;3.90;;
75073;SDS011;63652;51.526;5.080;2023-04-03T01:55:31;5.80;;;3.45;;
75073;SDS011;63652;51.526;5.080;2023-04-03T01:57:57;8.45;;;3.85;;
75073;SDS011;63652;51.526;5.080;2023-04-03T02:00:22;5.40;;;3.40;;
75073;SDS011;63652;51.526;5.080;2023-04-03T02:02:48;5.93;;;3.85;;
75073;SDS011;63652;51.526;5.080;2023-04-03T02:05:13;6.45;;;3.55;;
75073;SDS011;63652;51.526;5.080;2023-04-03T02:07:38;7.90;;;3.58;;
75073;SDS011;63652;51.526;5.080;2023-04-03T02:10:04;5.20;;;2.97;;
75073;SDS011;63652;51.526;5.080;2023-04-03T02:12:30;6.60;;;3.72;;
75073;SDS011;63652;51.526;5.080;2023-04-03T02:14:55;5.82;;;3.33;;
75073;SDS011;63652;51.526;5.080;2023-04-03T02:17:21;6.43;;;3.92;;
75073;SDS011;63652;51.526;5.080;2023-04-03T02:19:46;7.03;;;4.00;;
75073;SDS011;63652;51.526;5.080;2023-04-03T02:22:11;6.63;;;3.83;;
75073;SDS011;63652;51.526;5.080;2023-04-03T02:24:37;7.25;;;3.95;;
75073;SDS011;63652;51.526;5.080;2023-04-03T02:27:04;7.47;;;3.75;;
75073;SDS011;63652;51.526;5.080;2023-04-03T02:29:29;5.82;;;3.25;;
75073;SDS011;63652;51.526;5.080;2023-04-03T02:31:55;6.82;;;3.30;;
75073;SDS011;63652;51.526;5.080;2023-04-03T02:34:20;7.38;;;3.85;;
75073;SDS011;63652;51.526;5.080;2023-04-03T02:36:46;6.45;;;3.58;;
75073;SDS011;63652;51.526;5.080;2023-04-03T02:39:11;5.90;;;3.15;;
75073;SDS011;63652;51.526;5.080;2023-04-03T02:41:37;6.68;;;3.22;;
75073;SDS011;63652;51.526;5.080;2023-04-03T02:44:02;6.60;;;3.40;;
75073;SDS011;63652;51.526;5.080;2023-04-03T02:46:29;6.40;;;3.55;;
75073;SDS011;63652;51.526;5.080;2023-04-03T02:48:54;4.88;;;2.78;;
75073;SDS011;63652;51.526;5.080;2023-04-03T02:51:19;6.53;;;3.90;;
75073;SDS011;63652;51.526;5.080;2023-04-03T02:53:45;6.28;;;2.95;;
75073;SDS011;63652;51.526;5.080;2023-04-03T02:56:10;4.68;;;2.70;;
75073;SDS011;63652;51.526;5.080;2023-04-03T02:58:35;6.32;;;3.67;;
75073;SDS011;63652;51.526;5.080;2023-04-03T03:01:01;7.13;;;3.20;;
75073;SDS011;63652;51.526;5.080;2023-04-03T03:03:27;6.70;;;3.13;;
75073;SDS011;63652;51.526;5.080;2023-04-03T03:06:05;6.22;;;3.63;;
75073;SDS011;63652;51.526;5.080;2023-04-03T03:08:32;9.20;;;3.22;;
75073;SDS011;63652;51.526;5.080;2023-04-03T03:10:58;5.03;;;2.88;;
75073;SDS011;63652;51.526;5.080;2023-04-03T03:13:24;11.35;;;3.63;;
75073;SDS011;63652;51.526;5.080;2023-04-03T03:15:50;4.88;;;3.13;;
75073;SDS011;63652;51.526;5.080;2023-04-03T03:18:15;5.57;;;3.38;;
75073;SDS011;63652;51.526;5.080;2023-04-03T03:20:41;6.88;;;3.22;;
75073;SDS011;63652;51.526;5.080;2023-04-03T03:23:06;8.77;;;3.10;;
75073;SDS011;63652;51.526;5.080;2023-04-03T03:25:32;7.85;;;3.38;;
75073;SDS011;63652;51.526;5.080;2023-04-03T03:27:57;6.30;;;3.20;;
75073;SDS011;63652;51.526;5.080;2023-04-03T03:30:22;6.55;;;3.15;;
75073;SDS011;63652;51.526;5.080;2023-04-03T03:32:48;7.22;;;3.15;;
75073;SDS011;63652;51.526;5.080;2023-04-03T03:35:13;6.20;;;2.72;;
75073;SDS011;63652;51.526;5.080;2023-04-03T03:37:39;7.32;;;3.22;;
75073;SDS011;63652;51.526;5.080;2023-04-03T03:40:04;5.00;;;2.92;;
75073;SDS011;63652;51.526;5.080;2023-04-03T03:42:30;5.78;;;2.83;;
75073;SDS011;63652;51.526;5.080;2023-04-03T03:44:56;4.95;;;2.75;;
75073;SDS011;63652;51.526;5.080;2023-04-03T03:47:21;6.80;;;3.28;;
75073;SDS011;63652;51.526;5.080;2023-04-03T03:49:46;6.70;;;2.63;;
75073;SDS011;63652;51.526;5.080;2023-04-03T03:52:12;7.65;;;3.22;;
75073;SDS011;63652;51.526;5.080;2023-04-03T03:54:37;7.30;;;2.97;;
75073;SDS011;63652;51.526;5.080;2023-04-03T03:57:03;6.93;;;3.05;;
75073;SDS011;63652;51.526;5.080;2023-04-03T03:59:28;5.75;;;3.00;;
75073;SDS011;63652;51.526;5.080;2023-04-03T04:01:54;7.22;;;3.33;;
75073;SDS011;63652;51.526;5.080;2023-04-03T04:04:20;5.15;;;2.72;;
75073;SDS011;63652;51.526;5.080;2023-04-03T04:06:45;5.15;;;2.67;;
75073;SDS011;63652;51.526;5.080;2023-04-03T04:09:11;8.40;;;3.00;;
75073;SDS011;63652;51.526;5.080;2023-04-03T04:11:36;5.60;;;2.90;;
75073;SDS011;63652;51.526;5.080;2023-04-03T04:14:02;9.20;;;3.60;;
75073;SDS011;63652;51.526;5.080;2023-04-03T04:16:27;7.28;;;3.35;;
75073;SDS011;63652;51.526;5.080;2023-04-03T04:18:52;8.10;;;2.85;;
75073;SDS011;63652;51.526;5.080;2023-04-03T04:21:18;4.85;;;2.75;;
75073;SDS011;63652;51.526;5.080;2023-04-03T04:23:43;5.00;;;2.47;;
75073;SDS011;63652;51.526;5.080;2023-04-03T04:26:08;7.82;;;2.78;;
75073;SDS011;63652;51.526;5.080;2023-04-03T04:28:34;4.53;;;2.55;;
75073;SDS011;63652;51.526;5.080;2023-04-03T04:30:59;4.88;;;2.65;;
75073;SDS011;63652;51.526;5.080;2023-04-03T04:33:25;4.68;;;2.60;;
75073;SDS011;63652;51.526;5.080;2023-04-03T04:35:50;7.15;;;3.13;;
75073;SDS011;63652;51.526;5.080;2023-04-03T04:38:16;4.18;;;2.72;;
75073;SDS011;63652;51.526;5.080;2023-04-03T04:40:42;6.53;;;3.20;;
75073;SDS011;63652;51.526;5.080;2023-04-03T04:43:07;4.78;;;2.63;;
75073;SDS011;63652;51.526;5.080;2023-04-03T04:45:33;4.53;;;2.20;;
75073;SDS011;63652;51.526;5.080;2023-04-03T04:47:58;6.18;;;2.63;;
75073;SDS011;63652;51.526;5.080;2023-04-03T04:50:23;4.55;;;2.53;;
75073;SDS011;63652;51.526;5.080;2023-04-03T04:52:49;5.55;;;2.72;;
75073;SDS011;63652;51.526;5.080;2023-04-03T04:55:14;4.75;;;2.17;;
75073;SDS011;63652;51.526;5.080;2023-04-03T04:57:40;5.07;;;2.40;;
75073;SDS011;63652;51.526;5.080;2023-04-03T05:00:05;5.10;;;2.20;;
75073;SDS011;63652;51.526;5.080;2023-04-03T05:02:31;8.18;;;2.40;;
75073;SDS011;63652;51.526;5.080;2023-04-03T05:04:56;6.20;;;2.63;;
75073;SDS011;63652;51.526;5.080;2023-04-03T05:07:22;4.47;;;2.40;;
75073;SDS011;63652;51.526;5.080;2023-04-03T05:09:47;5.18;;;2.60;;
75073;SDS011;63652;51.526;5.080;2023-04-03T05:12:13;4.65;;;1.83;;
75073;SDS011;63652;51.526;5.080;2023-04-03T05:14:38;4.07;;;2.22;;
75073;SDS011;63652;51.526;5.080;2023-04-03T05:17:04;5.63;;;2.78;;
75073;SDS011;63652;51.526;5.080;2023-04-03T05:19:29;5.07;;;1.63;;
75073;SDS011;63652;51.526;5.080;2023-04-03T05:21:54;5.72;;;2.33;;
75073;SDS011;63652;51.526;5.080;2023-04-03T05:24:20;6.95;;;2.50;;
75073;SDS011;63652;51.526;5.080;2023-04-03T05:26:45;7.40;;;2.22;;
75073;SDS011;63652;51.526;5.080;2023-04-03T05:29:11;4.80;;;1.85;;
75073;SDS011;63652;51.526;5.080;2023-04-03T05:31:37;5.18;;;2.15;;
75073;SDS011;63652;51.526;5.080;2023-04-03T05:34:02;4.80;;;1.83;;
75073;SDS011;63652;51.526;5.080;2023-04-03T05:36:28;5.95;;;2.25;;
75073;SDS011;63652;51.526;5.080;2023-04-03T05:38:53;6.80;;;2.13;;
75073;SDS011;63652;51.526;5.080;2023-04-03T05:41:21;3.35;;;1.30;;
75073;SDS011;63652;51.526;5.080;2023-04-03T05:43:46;4.32;;;1.92;;
75073;SDS011;63652;51.526;5.080;2023-04-03T05:46:13;3.92;;;2.05;;
75073;SDS011;63652;51.526;5.080;2023-04-03T05:48:42;2.72;;;1.50;;
75073;SDS011;63652;51.526;5.080;2023-04-03T05:51:13;4.40;;;2.30;;
75073;SDS011;63652;51.526;5.080;2023-04-03T05:53:40;3.75;;;1.98;;
75073;SDS011;63652;51.526;5.080;2023-04-03T05:56:06;8.32;;;2.40;;
75073;SDS011;63652;51.526;5.080;2023-04-03T05:58:31;5.75;;;2.40;;
75073;SDS011;63652;51.526;5.080;2023-04-03T06:00:57;4.45;;;2.20;;
75073;SDS011;63652;51.526;5.080;2023-04-03T06:03:22;5.53;;;2.17;;
75073;SDS011;63652;51.526;5.080;2023-04-03T06:05:48;6.70;;;2.45;;
75073;SDS011;63652;51.526;5.080;2023-04-03T06:08:13;5.22;;;2.25;;
75073;SDS011;63652;51.526;5.080;2023-04-03T06:10:39;4.05;;;2.08;;
75073;SDS011;63652;51.526;5.080;2023-04-03T06:13:05;4.07;;;2.10;;
75073;SDS011;63652;51.526;5.080;2023-04-03T06:15:31;5.57;;;2.08;;
75073;SDS011;63652;51.526;5.080;2023-04-03T06:17:56;9.80;;;2.13;;
75073;SDS011;63652;51.526;5.080;2023-04-03T06:20:22;7.90;;;1.70;;
75073;SDS011;63652;51.526;5.080;2023-04-03T06:22:47;6.57;;;2.00;;
75073;SDS011;63652;51.526;5.080;2023-04-03T06:25:13;4.88;;;2.03;;
75073;SDS011;63652;51.526;5.080;2023-04-03T06:27:39;3.20;;;1.00;;
75073;SDS011;63652;51.526;5.080;2023-04-03T06:30:05;3.92;;;1.55;;
75073;SDS011;63652;51.526;5.080;2023-04-03T06:32:31;4.05;;;1.58;;
75073;SDS011;63652;51.526;5.080;2023-04-03T06:34:57;4.03;;;1.40;;
75073;SDS011;63652;51.526;5.080;2023-04-03T06:37:23;3.65;;;1.38;;
75073;SDS011;63652;51.526;5.080;2023-04-03T06:39:51;5.28;;;1.58;;
75073;SDS011;63652;51.526;5.080;2023-04-03T06:42:16;5.75;;;2.03;;
75073;SDS011;63652;51.526;5.080;2023-04-03T06:44:42;4.13;;;0.95;;
75073;SDS011;63652;51.526;5.080;2023-04-03T06:47:09;5.63;;;1.55;;
75073;SDS011;63652;51.526;5.080;2023-04-03T06:49:36;2.85;;;1.60;;
75073;SDS011;63652;51.526;5.080;2023-04-03T06:52:02;1.50;;;0.63;;
75073;SDS011;63652;51.526;5.080;2023-04-03T06:54:27;2.58;;;1.15;;
75073;SDS011;63652;51.526;5.080;2023-04-03T06:56:53;3.03;;;1.35;;
75073;SDS011;63652;51.526;5.080;2023-04-03T06:59:18;3.22;;;1.52;;
75073;SDS011;63652;51.526;5.080;2023-04-03T07:01:44;2.55;;;0.93;;
75073;SDS011;63652;51.526;5.080;2023-04-03T07:04:10;4.28;;;1.63;;
75073;SDS011;63652;51.526;5.080;2023-04-03T07:06:35;2.42;;;0.88;;
75073;SDS011;63652;51.526;5.080;2023-04-03T07:09:01;5.35;;;1.40;;
75073;SDS011;63652;51.526;5.080;2023-04-03T07:11:27;6.07;;;1.55;;
75073;SDS011;63652;51.526;5.080;2023-04-03T07:13:53;3.97;;;1.15;;
75073;SDS011;63652;51.526;5.080;2023-04-03T07:16:18;4.22;;;1.33;;
75073;SDS011;63652;51.526;5.080;2023-04-03T07:18:44;3.70;;;1.48;;
75073;SDS011;63652;51.526;5.080;2023-04-03T07:21:10;3.80;;;1.52;;
75073;SDS011;63652;51.526;5.080;2023-04-03T07:23:36;6.32;;;1.48;;
75073;SDS011;63652;51.526;5.080;2023-04-03T07:26:01;3.40;;;1.33;;
75073;SDS011;63652;51.526;5.080;2023-04-03T07:28:27;5.30;;;1.67;;
75073;SDS011;63652;51.526;5.080;2023-04-03T07:31:14;3.38;;;1.08;;
75073;SDS011;63652;51.526;5.080;2023-04-03T07:33:38;4.47;;;1.83;;
75073;SDS011;63652;51.526;5.080;2023-04-03T07:36:05;3.13;;;1.15;;
75073;SDS011;63652;51.526;5.080;2023-04-03T07:38:31;2.10;;;0.98;;
75073;SDS011;63652;51.526;5.080;2023-04-03T07:40:57;2.25;;;1.17;;
75073;SDS011;63652;51.526;5.080;2023-04-03T07:43:23;3.50;;;1.42;;
75073;SDS011;63652;51.526;5.080;2023-04-03T07:45:49;3.17;;;1.42;;
75073;SDS011;63652;51.526;5.080;2023-04-03T07:48:16;3.83;;;0.80;;
75073;SDS011;63652;51.526;5.080;2023-04-03T07:50:43;5.22;;;1.33;;
75073;SDS011;63652;51.526;5.080;2023-04-03T07:53:08;4.97;;;0.98;;
75073;SDS011;63652;51.526;5.080;2023-04-03T07:55:34;3.50;;;1.58;;
75073;SDS011;63652;51.526;5.080;2023-04-03T07:58:02;3.00;;;0.82;;
75073;SDS011;63652;51.526;5.080;2023-04-03T08:00:28;5.15;;;1.38;;
75073;SDS011;63652;51.526;5.080;2023-04-03T08:02:54;4.55;;;1.10;;
75073;SDS011;63652;51.526;5.080;2023-04-03T08:05:20;6.72;;;1.67;;
75073;SDS011;63652;51.526;5.080;2023-04-03T08:07:46;2.95;;;0.88;;
75073;SDS011;63652;51.526;5.080;2023-04-03T08:10:12;2.17;;;0.82;;
75073;SDS011;63652;51.526;5.080;2023-04-03T08:12:38;4.70;;;1.17;;
75073;SDS011;63652;51.526;5.080;2023-04-03T08:15:03;4.22;;;1.42;;
75073;SDS011;63652;51.526;5.080;2023-04-03T08:17:29;4.40;;;1.52;;
75073;SDS011;63652;51.526;5.080;2023-04-03T08:19:54;6.07;;;1.27;;
75073;SDS011;63652;51.526;5.080;2023-04-03T08:22:20;6.82;;;1.20;;
75073;SDS011;63652;51.526;5.080;2023-04-03T08:24:46;3.75;;;1.27;;
75073;SDS011;63652;51.526;5.080;2023-04-03T08:27:11;5.28;;;0.80;;
75073;SDS011;63652;51.526;5.080;2023-04-03T08:29:36;5.45;;;1.30;;
75073;SDS011;63652;51.526;5.080;2023-04-03T08:32:03;4.03;;;1.50;;
75073;SDS011;63652;51.526;5.080;2023-04-03T08:34:29;5.25;;;1.20;;
75073;SDS011;63652;51.526;5.080;2023-04-03T08:36:54;8.57;;;1.83;;
75073;SDS011;63652;51.526;5.080;2023-04-03T08:39:20;4.10;;;1.25;;
75073;SDS011;63652;51.526;5.080;2023-04-03T08:41:45;3.22;;;1.05;;
75073;SDS011;63652;51.526;5.080;2023-04-03T08:47:34;6.55;;;1.13;;
75073;SDS011;63652;51.526;5.080;2023-04-03T08:50:07;3.80;;;1.23;;
75073;SDS011;63652;51.526;5.080;2023-04-03T08:52:39;3.35;;;0.82;;
75073;SDS011;63652;51.526;5.080;2023-04-03T08:55:29;3.40;;;1.00;;
75073;SDS011;63652;51.526;5.080;2023-04-03T08:58:04;3.15;;;0.90;;
75073;SDS011;63652;51.526;5.080;2023-04-03T09:00:50;6.10;;;1.40;;
75073;SDS011;63652;51.526;5.080;2023-04-03T09:03:18;2.53;;;0.60;;
75073;SDS011;63652;51.526;5.080;2023-04-03T09:10:52;5.18;;;1.55;;
75073;SDS011;63652;51.526;5.080;2023-04-03T09:13:35;2.20;;;0.50;;
75073;SDS011;63652;51.526;5.080;2023-04-03T09:16:23;4.47;;;0.82;;
75073;SDS011;63652;51.526;5.080;2023-04-03T09:18:56;2.20;;;0.73;;
75073;SDS011;63652;51.526;5.080;2023-04-03T09:21:35;2.45;;;0.70;;
75073;SDS011;63652;51.526;5.080;2023-04-03T09:24:04;4.47;;;0.68;;
75073;SDS011;63652;51.526;5.080;2023-04-03T09:26:36;3.78;;;0.77;;
75073;SDS011;63652;51.526;5.080;2023-04-03T09:29:06;2.95;;;1.05;;
75073;SDS011;63652;51.526;5.080;2023-04-03T09:31:37;1.88;;;0.60;;
75073;SDS011;63652;51.526;5.080;2023-04-03T09:34:11;3.40;;;0.50;;
75073;SDS011;63652;51.526;5.080;2023-04-03T09:36:46;3.63;;;0.55;;
75073;SDS011;63652;51.526;5.080;2023-04-03T09:39:15;0.45;;;0.20;;
75073;SDS011;63652;51.526;5.080;2023-04-03T09:41:42;1.95;;;0.70;;
75073;SDS011;63652;51.526;5.080;2023-04-03T09:44:20;2.88;;;0.55;;
75073;SDS011;63652;51.526;5.080;2023-04-03T09:46:48;3.15;;;0.63;;
75073;SDS011;63652;51.526;5.080;2023-04-03T09:49:13;1.23;;;0.32;;
75073;SDS011;63652;51.526;5.080;2023-04-03T09:51:38;2.50;;;0.40;;
75073;SDS011;63652;51.526;5.080;2023-04-03T09:57:06;2.78;;;0.63;;
75073;SDS011;63652;51.526;5.080;2023-04-03T09:59:46;1.83;;;0.40;;
75073;SDS011;63652;51.526;5.080;2023-04-03T10:02:28;0.90;;;0.40;;
75073;SDS011;63652;51.526;5.080;2023-04-03T10:04:56;5.97;;;0.52;;
75073;SDS011;63652;51.526;5.080;2023-04-03T10:07:26;3.33;;;0.60;;
75073;SDS011;63652;51.526;5.080;2023-04-03T10:09:59;2.20;;;0.50;;
75073;SDS011;63652;51.526;5.080;2023-04-03T10:12:28;0.63;;;0.25;;
75073;SDS011;63652;51.526;5.080;2023-04-03T10:15:00;1.80;;;0.40;;
75073;SDS011;63652;51.526;5.080;2023-04-03T10:33:14;1.20;;;0.40;;
75073;SDS011;63652;51.526;5.080;2023-04-03T10:46:36;0.50;;;0.20;;
75073;SDS011;63652;51.526;5.080;2023-04-03T10:59:38;0.90;;;0.22;;
75073;SDS011;63652;51.526;5.080;2023-04-03T11:02:11;0.98;;;0.32;;
75073;SDS011;63652;51.526;5.080;2023-04-03T11:04:44;3.05;;;1.13;;
75073;SDS011;63652;51.526;5.080;2023-04-03T11:12:52;0.70;;;0.20;;
75073;SDS011;63652;51.526;5.080;2023-04-03T11:15:24;0.68;;;0.25;;
75073;SDS011;63652;51.526;5.080;2023-04-03T11:17:52;3.15;;;0.82;;
75073;SDS011;63652;51.526;5.080;2023-04-03T11:20:22;1.48;;;0.30;;
75073;SDS011;63652;51.526;5.080;2023-04-03T11:25:45;0.40;;;0.20;;
75073;SDS011;63652;51.526;5.080;2023-04-03T11:28:14;1.40;;;0.40;;
75073;SDS011;63652;51.526;5.080;2023-04-03T11:33:15;0.88;;;0.30;;
75073;SDS011;63652;51.526;5.080;2023-04-03T11:35:47;1.10;;;0.47;;
75073;SDS011;63652;51.526;5.080;2023-04-03T11:38:23;1.13;;;0.43;;
75073;SDS011;63652;51.526;5.080;2023-04-03T11:44:29;0.60;;;0.28;;
75073;SDS011;63652;51.526;5.080;2023-04-03T11:47:02;2.10;;;0.50;;
75073;SDS011;63652;51.526;5.080;2023-04-03T12:13:33;2.03;;;0.40;;
75073;SDS011;63652;51.526;5.080;2023-04-03T12:16:21;1.05;;;0.40;;
75073;SDS011;63652;51.526;5.080;2023-04-03T12:21:20;1.92;;;0.50;;
75073;SDS011;63652;51.526;5.080;2023-04-03T12:24:32;1.17;;;0.38;;
75073;SDS011;63652;51.526;5.080;2023-04-03T12:26:43;1.30;;;0.38;;
75073;SDS011;63652;51.526;5.080;2023-04-03T12:34:46;1.80;;;0.32;;
75073;SDS011;63652;51.526;5.080;2023-04-03T12:40:05;0.65;;;0.43;;
75073;SDS011;63652;51.526;5.080;2023-04-03T12:45:58;0.70;;;0.10;;
75073;SDS011;63652;51.526;5.080;2023-04-03T12:48:51;1.27;;;0.32;;
75073;SDS011;63652;51.526;5.080;2023-04-03T12:51:22;1.10;;;0.30;;
75073;SDS011;63652;51.526;5.080;2023-04-03T12:53:56;2.53;;;0.50;;
75073;SDS011;63652;51.526;5.080;2023-04-03T12:56:25;1.33;;;0.30;;
75073;SDS011;63652;51.526;5.080;2023-04-03T12:59:12;2.72;;;0.82;;
75073;SDS011;63652;51.526;5.080;2023-04-03T13:01:58;1.25;;;0.43;;
75073;SDS011;63652;51.526;5.080;2023-04-03T13:04:25;2.00;;;0.50;;
75073;SDS011;63652;51.526;5.080;2023-04-03T13:06:52;1.33;;;0.30;;
75073;SDS011;63652;51.526;5.080;2023-04-03T13:09:19;2.10;;;0.77;;
75073;SDS011;63652;51.526;5.080;2023-04-03T13:11:46;1.85;;;0.50;;
75073;SDS011;63652;51.526;5.080;2023-04-03T13:14:22;2.05;;;0.40;;
75073;SDS011;63652;51.526;5.080;2023-04-03T13:16:56;2.20;;;0.60;;
75073;SDS011;63652;51.526;5.080;2023-04-03T13:19:23;3.83;;;0.90;;
75073;SDS011;63652;51.526;5.080;2023-04-03T13:21:51;1.13;;;0.45;;
75073;SDS011;63652;51.526;5.080;2023-04-03T13:24:40;1.50;;;0.70;;
75073;SDS011;63652;51.526;5.080;2023-04-03T13:27:05;2.80;;;0.32;;
75073;SDS011;63652;51.526;5.080;2023-04-03T13:29:32;2.63;;;0.60;;
75073;SDS011;63652;51.526;5.080;2023-04-03T13:32:00;1.52;;;0.47;;
75073;SDS011;63652;51.526;5.080;2023-04-03T13:34:27;2.15;;;0.55;;
75073;SDS011;63652;51.526;5.080;2023-04-03T13:36:58;2.10;;;0.70;;
75073;SDS011;63652;51.526;5.080;2023-04-03T13:39:29;2.47;;;0.85;;
75073;SDS011;63652;51.526;5.080;2023-04-03T13:41:58;4.90;;;0.55;;
75073;SDS011;63652;51.526;5.080;2023-04-03T13:44:39;3.92;;;0.65;;
75073;SDS011;63652;51.526;5.080;2023-04-03T13:49:46;3.83;;;1.08;;
75073;SDS011;63652;51.526;5.080;2023-04-03T13:52:34;2.08;;;0.60;;
75073;SDS011;63652;51.526;5.080;2023-04-03T13:55:16;2.90;;;0.80;;
75073;SDS011;63652;51.526;5.080;2023-04-03T13:57:49;1.73;;;0.70;;
75073;SDS011;63652;51.526;5.080;2023-04-03T14:00:29;2.92;;;0.90;;
75073;SDS011;63652;51.526;5.080;2023-04-03T14:02:58;4.55;;;0.77;;
75073;SDS011;63652;51.526;5.080;2023-04-03T14:05:23;2.38;;;0.90;;
75073;SDS011;63652;51.526;5.080;2023-04-03T14:07:50;3.08;;;0.90;;
75073;SDS011;63652;51.526;5.080;2023-04-03T14:10:19;3.85;;;0.80;;
75073;SDS011;63652;51.526;5.080;2023-04-03T14:12:45;2.65;;;0.73;;
75073;SDS011;63652;51.526;5.080;2023-04-03T14:15:21;1.50;;;0.75;;
75073;SDS011;63652;51.526;5.080;2023-04-03T14:17:49;5.25;;;0.90;;
75073;SDS011;63652;51.526;5.080;2023-04-03T14:20:18;1.95;;;0.50;;
75073;SDS011;63652;51.526;5.080;2023-04-03T14:22:46;2.70;;;0.80;;
75073;SDS011;63652;51.526;5.080;2023-04-03T14:25:12;2.35;;;0.60;;
75073;SDS011;63652;51.526;5.080;2023-04-03T14:27:38;2.45;;;0.60;;
75073;SDS011;63652;51.526;5.080;2023-04-03T14:30:07;2.50;;;0.65;;
75073;SDS011;63652;51.526;5.080;2023-04-03T14:32:36;2.97;;;0.73;;
75073;SDS011;63652;51.526;5.080;2023-04-03T14:35:02;3.03;;;0.65;;
75073;SDS011;63652;51.526;5.080;2023-04-03T14:37:29;2.40;;;0.95;;
75073;SDS011;63652;51.526;5.080;2023-04-03T14:39:55;2.38;;;0.80;;
75073;SDS011;63652;51.526;5.080;2023-04-03T14:42:23;2.67;;;0.73;;
75073;SDS011;63652;51.526;5.080;2023-04-03T14:44:50;3.08;;;0.80;;
75073;SDS011;63652;51.526;5.080;2023-04-03T14:47:18;2.05;;;0.82;;
75073;SDS011;63652;51.526;5.080;2023-04-03T14:49:45;1.90;;;0.70;;
75073;SDS011;63652;51.526;5.080;2023-04-03T14:52:25;3.60;;;1.10;;
75073;SDS011;63652;51.526;5.080;2023-04-03T14:54:52;2.35;;;0.70;;
75073;SDS011;63652;51.526;5.080;2023-04-03T14:57:18;1.90;;;0.73;;
75073;SDS011;63652;51.526;5.080;2023-04-03T14:59:44;2.05;;;0.70;;
75073;SDS011;63652;51.526;5.080;2023-04-03T15:04:56;2.45;;;0.95;;
75073;SDS011;63652;51.526;5.080;2023-04-03T15:07:22;3.65;;;1.00;;
75073;SDS011;63652;51.526;5.080;2023-04-03T15:09:49;3.70;;;0.80;;
75073;SDS011;63652;51.526;5.080;2023-04-03T15:12:15;2.15;;;0.80;;
75073;SDS011;63652;51.526;5.080;2023-04-03T15:14:40;1.60;;;0.70;;
75073;SDS011;63652;51.526;5.080;2023-04-03T15:17:06;2.20;;;0.50;;
75073;SDS011;63652;51.526;5.080;2023-04-03T15:19:37;2.42;;;0.88;;
75073;SDS011;63652;51.526;5.080;2023-04-03T15:22:03;2.40;;;0.90;;
75073;SDS011;63652;51.526;5.080;2023-04-03T15:24:29;1.13;;;0.63;;
75073;SDS011;63652;51.526;5.080;2023-04-03T15:26:54;2.33;;;0.65;;
75073;SDS011;63652;51.526;5.080;2023-04-03T15:29:20;4.07;;;0.82;;
75073;SDS011;63652;51.526;5.080;2023-04-03T15:31:45;1.50;;;0.55;;
75073;SDS011;63652;51.526;5.080;2023-04-03T15:34:10;0.95;;;0.47;;
75073;SDS011;63652;51.526;5.080;2023-04-03T15:36:36;3.05;;;1.00;;
75073;SDS011;63652;51.526;5.080;2023-04-03T15:39:01;3.00;;;0.85;;
75073;SDS011;63652;51.526;5.080;2023-04-03T15:41:27;2.05;;;0.60;;
75073;SDS011;63652;51.526;5.080;2023-04-03T15:43:52;3.72;;;0.95;;
75073;SDS011;63652;51.526;5.080;2023-04-03T15:46:17;3.45;;;1.00;;
75073;SDS011;63652;51.526;5.080;2023-04-03T15:48:43;5.20;;;1.42;;
75073;SDS011;63652;51.526;5.080;2023-04-03T15:51:09;5.75;;;0.88;;
75073;SDS011;63652;51.526;5.080;2023-04-03T15:53:35;4.78;;;0.70;;
75073;SDS011;63652;51.526;5.080;2023-04-03T15:56:00;1.25;;;0.40;;
75073;SDS011;63652;51.526;5.080;2023-04-03T15:58:25;4.45;;;0.90;;
75073;SDS011;63652;51.526;5.080;2023-04-03T16:00:51;1.75;;;0.60;;
75073;SDS011;63652;51.526;5.080;2023-04-03T16:03:17;5.75;;;0.80;;
75073;SDS011;63652;51.526;5.080;2023-04-03T16:05:44;3.25;;;0.82;;
75073;SDS011;63652;51.526;5.080;2023-04-03T16:08:09;2.38;;;0.80;;
75073;SDS011;63652;51.526;5.080;2023-04-03T16:10:35;1.60;;;0.50;;
75073;SDS011;63652;51.526;5.080;2023-04-03T16:13:01;2.00;;;0.57;;
75073;SDS011;63652;51.526;5.080;2023-04-03T16:15:27;3.08;;;0.70;;
75073;SDS011;63652;51.526;5.080;2023-04-03T16:17:52;2.20;;;1.00;;
75073;SDS011;63652;51.526;5.080;2023-04-03T16:20:18;3.58;;;0.95;;
75073;SDS011;63652;51.526;5.080;2023-04-03T16:22:44;2.50;;;0.88;;
75073;SDS011;63652;51.526;5.080;2023-04-03T16:25:10;2.35;;;0.82;;
75073;SDS011;63652;51.526;5.080;2023-04-03T16:27:36;2.90;;;1.02;;
75073;SDS011;63652;51.526;5.080;2023-04-03T16:30:03;1.67;;;0.77;;
75073;SDS011;63652;51.526;5.080;2023-04-03T16:32:30;3.92;;;0.77;;
75073;SDS011;63652;51.526;5.080;2023-04-03T16:34:56;2.88;;;1.27;;
75073;SDS011;63652;51.526;5.080;2023-04-03T16:37:22;2.22;;;0.80;;
75073;SDS011;63652;51.526;5.080;2023-04-03T16:39:48;5.15;;;0.90;;
75073;SDS011;63652;51.526;5.080;2023-04-03T16:42:13;5.57;;;0.95;;
75073;SDS011;63652;51.526;5.080;2023-04-03T16:44:38;2.90;;;0.75;;
75073;SDS011;63652;51.526;5.080;2023-04-03T16:47:05;2.55;;;0.90;;